Terminal Aerodrome Forecast
Issued by NWS

Home | Current Version | Previous Version | Text Only | Print | Product List | Glossary On
Versions: 1 2 3 4 5 6 7 8 9 10 11 12 13 14 15 16 17 18 19 20 21 22 23 24 25 26 27
423
FTUS41 KPHI 251009 AAB
TAFMIV
TAF AMD
KMIV 251009Z 2510/2606 01004KT 2SM BR OVC003
     FM251300 36007KT P6SM BKN012
     FM251900 36008KT P6SM OVC035
     FM260100 VRB02KT 6SM BR BKN050=

USA.gov is the U.S. government's official web portal to all federal, state and local government web resources and services.